Les Cayes, Haiti
Current Conditions -  °F | °C
As of 5:56 PM on Saturday 25 Oct 2014 (Local Time) from MUGM Reporting Station
Scattered Clouds Scattered Clouds  
Wind Chill: 29°   Ceiling: Unl
Heat Index: 35°   Visibility: 6mi
Dew Point: 26°   Wind: 13mph
Humidity: 82%   Direction: 210°SSW
Pressure: 29.82"   Gusts: NA
Location:  18.2°N, 73.75°W
Report Text: MUGM 252256Z 21011KT 9999 FEW024 SCT045 SCT150 29/26 A2982 RMK SLP098 T02890256
Loading
Personal Weather Stations






























Interactive Weather Map
Tropical Storm Tracking
New forecast layout! Learn more

10-Day Weather Forecast

Advertisements
Track Severe Weather on mobile